Mineral Wells, Mississippi
Current Conditions -  °F | °C
As of 8:50 AM on Monday 22 Dec 2014 (Local Time) from KOLV Reporting Station
Haze Haze  
Wind Chill: 45°   Ceiling: 300
Heat Index: 48°   Visibility: 1.5mi
Dew Point: 48°   Wind: 8mph
Humidity: 100%   Direction: 150°SSE
Pressure: 29.83"   Gusts: NA
Location:  34.942°N, 89.5387°W
Report Text: KOLV 221450Z 15007KT 11/2SM BR OVC003 09/09 A2983
Loading
Personal Weather Stations






























Interactive Weather Map New forecast layout! Learn more

10-Day Weather Forecast

Advertisements
Track Severe Weather on mobile